sensor_id;sensor_type;location;lat;lon;timestamp;P1;durP1;ratioP1;P2;durP2;ratioP2
71973;SDS011;59840;52.122;5.404;2023-07-08T00:00:53;2.23;;;2.03;;
71973;SDS011;59840;52.122;5.404;2023-07-08T00:03:20;5.28;;;2.40;;
71973;SDS011;59840;52.122;5.404;2023-07-08T00:05:47;2.58;;;2.20;;
71973;SDS011;59840;52.122;5.404;2023-07-08T00:08:17;2.45;;;2.15;;
71973;SDS011;59840;52.122;5.404;2023-07-08T00:10:45;4.55;;;2.33;;
71973;SDS011;59840;52.122;5.404;2023-07-08T00:13:12;3.23;;;2.20;;
71973;SDS011;59840;52.122;5.404;2023-07-08T00:15:39;2.97;;;1.83;;
71973;SDS011;59840;52.122;5.404;2023-07-08T00:18:13;2.97;;;2.40;;
71973;SDS011;59840;52.122;5.404;2023-07-08T00:20:44;2.28;;;2.08;;
71973;SDS011;59840;52.122;5.404;2023-07-08T00:23:13;3.50;;;2.15;;
71973;SDS011;59840;52.122;5.404;2023-07-08T00:25:40;6.00;;;2.23;;
71973;SDS011;59840;52.122;5.404;2023-07-08T00:28:12;2.30;;;1.90;;
71973;SDS011;59840;52.122;5.404;2023-07-08T00:30:41;2.97;;;2.60;;
71973;SDS011;59840;52.122;5.404;2023-07-08T00:33:08;2.47;;;2.05;;
71973;SDS011;59840;52.122;5.404;2023-07-08T00:35:35;2.20;;;2.00;;
71973;SDS011;59840;52.122;5.404;2023-07-08T00:38:22;2.30;;;2.03;;
71973;SDS011;59840;52.122;5.404;2023-07-08T00:41:00;2.85;;;2.30;;
71973;SDS011;59840;52.122;5.404;2023-07-08T00:43:37;3.72;;;2.40;;
71973;SDS011;59840;52.122;5.404;2023-07-08T00:51:34;3.53;;;2.10;;
71973;SDS011;59840;52.122;5.404;2023-07-08T00:54:05;2.58;;;2.10;;
71973;SDS011;59840;52.122;5.404;2023-07-08T00:56:43;2.25;;;2.05;;
71973;SDS011;59840;52.122;5.404;2023-07-08T00:59:21;3.83;;;2.42;;
71973;SDS011;59840;52.122;5.404;2023-07-08T01:01:55;4.65;;;2.30;;
71973;SDS011;59840;52.122;5.404;2023-07-08T01:04:25;2.50;;;2.17;;
71973;SDS011;59840;52.122;5.404;2023-07-08T01:06:59;4.32;;;2.15;;
71973;SDS011;59840;52.122;5.404;2023-07-08T01:09:36;3.10;;;2.50;;
71973;SDS011;59840;52.122;5.404;2023-07-08T01:12:06;2.45;;;1.95;;
71973;SDS011;59840;52.122;5.404;2023-07-08T01:14:36;8.15;;;2.25;;
71973;SDS011;59840;52.122;5.404;2023-07-08T01:17:04;2.50;;;2.17;;
71973;SDS011;59840;52.122;5.404;2023-07-08T01:19:31;3.55;;;2.42;;
71973;SDS011;59840;52.122;5.404;2023-07-08T01:24:33;2.53;;;2.33;;
71973;SDS011;59840;52.122;5.404;2023-07-08T01:27:03;2.83;;;2.20;;
71973;SDS011;59840;52.122;5.404;2023-07-08T01:29:32;3.17;;;2.37;;
71973;SDS011;59840;52.122;5.404;2023-07-08T01:32:00;3.30;;;2.22;;
71973;SDS011;59840;52.122;5.404;2023-07-08T01:34:29;2.88;;;2.17;;
71973;SDS011;59840;52.122;5.404;2023-07-08T01:36:57;2.38;;;2.17;;
71973;SDS011;59840;52.122;5.404;2023-07-08T01:39:27;3.97;;;2.22;;
71973;SDS011;59840;52.122;5.404;2023-07-08T01:41:55;4.10;;;2.50;;
71973;SDS011;59840;52.122;5.404;2023-07-08T01:46:56;2.92;;;2.42;;
71973;SDS011;59840;52.122;5.404;2023-07-08T01:49:44;2.65;;;2.33;;
71973;SDS011;59840;52.122;5.404;2023-07-08T01:52:13;2.55;;;2.33;;
71973;SDS011;59840;52.122;5.404;2023-07-08T01:54:42;4.80;;;3.27;;
71973;SDS011;59840;52.122;5.404;2023-07-08T01:57:09;2.47;;;2.25;;
71973;SDS011;59840;52.122;5.404;2023-07-08T01:59:35;3.63;;;2.42;;
71973;SDS011;59840;52.122;5.404;2023-07-08T02:02:02;3.25;;;2.60;;
71973;SDS011;59840;52.122;5.404;2023-07-08T02:04:30;4.63;;;2.47;;
71973;SDS011;59840;52.122;5.404;2023-07-08T02:06:58;2.37;;;2.17;;
71973;SDS011;59840;52.122;5.404;2023-07-08T02:09:26;3.88;;;2.60;;
71973;SDS011;59840;52.122;5.404;2023-07-08T02:11:53;3.67;;;2.42;;
71973;SDS011;59840;52.122;5.404;2023-07-08T02:14:20;2.80;;;2.28;;
71973;SDS011;59840;52.122;5.404;2023-07-08T02:16:47;2.83;;;2.60;;
71973;SDS011;59840;52.122;5.404;2023-07-08T02:19:13;3.57;;;2.30;;
71973;SDS011;59840;52.122;5.404;2023-07-08T02:21:40;3.90;;;2.30;;
71973;SDS011;59840;52.122;5.404;2023-07-08T02:24:07;3.25;;;2.38;;
71973;SDS011;59840;52.122;5.404;2023-07-08T02:26:34;2.75;;;2.50;;
71973;SDS011;59840;52.122;5.404;2023-07-08T02:29:00;2.47;;;2.28;;
71973;SDS011;59840;52.122;5.404;2023-07-08T02:31:27;2.70;;;2.50;;
71973;SDS011;59840;52.122;5.404;2023-07-08T02:33:54;3.13;;;2.60;;
71973;SDS011;59840;52.122;5.404;2023-07-08T02:36:21;3.78;;;2.70;;
71973;SDS011;59840;52.122;5.404;2023-07-08T02:38:47;3.05;;;2.35;;
71973;SDS011;59840;52.122;5.404;2023-07-08T02:41:14;3.80;;;2.40;;
71973;SDS011;59840;52.122;5.404;2023-07-08T02:43:41;3.03;;;2.53;;
71973;SDS011;59840;52.122;5.404;2023-07-08T02:46:08;2.60;;;2.40;;
71973;SDS011;59840;52.122;5.404;2023-07-08T02:48:34;2.75;;;2.55;;
71973;SDS011;59840;52.122;5.404;2023-07-08T02:51:01;3.10;;;2.70;;
71973;SDS011;59840;52.122;5.404;2023-07-08T02:53:29;3.40;;;2.60;;
71973;SDS011;59840;52.122;5.404;2023-07-08T02:55:57;2.97;;;2.27;;
71973;SDS011;59840;52.122;5.404;2023-07-08T02:58:23;3.83;;;2.38;;
71973;SDS011;59840;52.122;5.404;2023-07-08T03:00:54;3.85;;;2.65;;
71973;SDS011;59840;52.122;5.404;2023-07-08T03:03:21;4.03;;;3.00;;
71973;SDS011;59840;52.122;5.404;2023-07-08T03:06:02;2.50;;;2.30;;
71973;SDS011;59840;52.122;5.404;2023-07-08T03:08:31;3.70;;;2.80;;
71973;SDS011;59840;52.122;5.404;2023-07-08T03:11:02;2.65;;;2.45;;
71973;SDS011;59840;52.122;5.404;2023-07-08T03:13:31;3.15;;;2.35;;
71973;SDS011;59840;52.122;5.404;2023-07-08T03:15:59;2.60;;;2.35;;
71973;SDS011;59840;52.122;5.404;2023-07-08T03:18:28;2.92;;;2.28;;
71973;SDS011;59840;52.122;5.404;2023-07-08T03:20:55;2.67;;;2.20;;
71973;SDS011;59840;52.122;5.404;2023-07-08T03:23:25;3.20;;;2.33;;
71973;SDS011;59840;52.122;5.404;2023-07-08T03:25:52;2.85;;;2.30;;
71973;SDS011;59840;52.122;5.404;2023-07-08T03:28:19;2.83;;;2.63;;
71973;SDS011;59840;52.122;5.404;2023-07-08T03:30:50;3.83;;;2.47;;
71973;SDS011;59840;52.122;5.404;2023-07-08T03:33:18;4.70;;;2.10;;
71973;SDS011;59840;52.122;5.404;2023-07-08T03:35:44;2.95;;;2.50;;
71973;SDS011;59840;52.122;5.404;2023-07-08T03:38:12;2.80;;;2.50;;
71973;SDS011;59840;52.122;5.404;2023-07-08T03:40:38;2.60;;;2.40;;
71973;SDS011;59840;52.122;5.404;2023-07-08T03:43:05;3.65;;;2.10;;
71973;SDS011;59840;52.122;5.404;2023-07-08T03:45:31;4.33;;;2.33;;
71973;SDS011;59840;52.122;5.404;2023-07-08T03:47:58;3.55;;;2.63;;
71973;SDS011;59840;52.122;5.404;2023-07-08T03:50:27;3.63;;;2.33;;
71973;SDS011;59840;52.122;5.404;2023-07-08T03:52:54;6.57;;;2.80;;
71973;SDS011;59840;52.122;5.404;2023-07-08T03:55:21;3.95;;;2.50;;
71973;SDS011;59840;52.122;5.404;2023-07-08T03:57:48;4.90;;;2.50;;
71973;SDS011;59840;52.122;5.404;2023-07-08T04:00:15;2.63;;;2.42;;
71973;SDS011;59840;52.122;5.404;2023-07-08T04:02:42;3.08;;;2.30;;
71973;SDS011;59840;52.122;5.404;2023-07-08T04:05:14;3.65;;;2.83;;
71973;SDS011;59840;52.122;5.404;2023-07-08T04:07:45;2.97;;;2.70;;
71973;SDS011;59840;52.122;5.404;2023-07-08T04:10:13;2.80;;;2.50;;
71973;SDS011;59840;52.122;5.404;2023-07-08T04:12:40;3.13;;;2.70;;
71973;SDS011;59840;52.122;5.404;2023-07-08T04:15:07;4.85;;;2.92;;
71973;SDS011;59840;52.122;5.404;2023-07-08T04:17:41;3.05;;;2.72;;
71973;SDS011;59840;52.122;5.404;2023-07-08T04:20:11;2.40;;;2.20;;
71973;SDS011;59840;52.122;5.404;2023-07-08T04:22:40;3.50;;;2.90;;
71973;SDS011;59840;52.122;5.404;2023-07-08T04:25:07;3.40;;;2.60;;
71973;SDS011;59840;52.122;5.404;2023-07-08T04:27:33;2.67;;;2.47;;
71973;SDS011;59840;52.122;5.404;2023-07-08T04:30:00;3.97;;;2.90;;
71973;SDS011;59840;52.122;5.404;2023-07-08T04:32:26;3.60;;;2.83;;
71973;SDS011;59840;52.122;5.404;2023-07-08T04:34:53;3.53;;;3.07;;
71973;SDS011;59840;52.122;5.404;2023-07-08T04:37:20;3.42;;;2.95;;
71973;SDS011;59840;52.122;5.404;2023-07-08T04:39:46;3.88;;;2.72;;
71973;SDS011;59840;52.122;5.404;2023-07-08T04:42:14;2.95;;;2.65;;
71973;SDS011;59840;52.122;5.404;2023-07-08T04:44:42;3.80;;;3.13;;
71973;SDS011;59840;52.122;5.404;2023-07-08T04:47:09;3.23;;;2.93;;
71973;SDS011;59840;52.122;5.404;2023-07-08T04:49:38;3.20;;;2.63;;
71973;SDS011;59840;52.122;5.404;2023-07-08T04:52:07;3.38;;;3.00;;
71973;SDS011;59840;52.122;5.404;2023-07-08T04:54:33;4.47;;;3.22;;
71973;SDS011;59840;52.122;5.404;2023-07-08T04:57:00;4.40;;;2.90;;
71973;SDS011;59840;52.122;5.404;2023-07-08T04:59:26;4.80;;;2.60;;
71973;SDS011;59840;52.122;5.404;2023-07-08T05:01:53;5.63;;;2.83;;
71973;SDS011;59840;52.122;5.404;2023-07-08T05:04:20;4.50;;;2.70;;
71973;SDS011;59840;52.122;5.404;2023-07-08T05:06:49;5.32;;;3.08;;
71973;SDS011;59840;52.122;5.404;2023-07-08T05:09:16;3.80;;;2.67;;
71973;SDS011;59840;52.122;5.404;2023-07-08T05:11:43;3.40;;;2.80;;
71973;SDS011;59840;52.122;5.404;2023-07-08T05:14:10;3.55;;;2.63;;
71973;SDS011;59840;52.122;5.404;2023-07-08T05:16:38;3.10;;;2.80;;
71973;SDS011;59840;52.122;5.404;2023-07-08T05:19:06;7.65;;;2.85;;
71973;SDS011;59840;52.122;5.404;2023-07-08T05:21:33;4.03;;;2.80;;
71973;SDS011;59840;52.122;5.404;2023-07-08T05:24:04;3.77;;;2.90;;
71973;SDS011;59840;52.122;5.404;2023-07-08T05:26:32;4.85;;;3.05;;
71973;SDS011;59840;52.122;5.404;2023-07-08T05:28:59;3.05;;;2.75;;
71973;SDS011;59840;52.122;5.404;2023-07-08T05:31:26;3.20;;;2.88;;
71973;SDS011;59840;52.122;5.404;2023-07-08T05:34:13;3.55;;;3.00;;
71973;SDS011;59840;52.122;5.404;2023-07-08T05:36:41;3.50;;;2.50;;
71973;SDS011;59840;52.122;5.404;2023-07-08T05:39:07;3.40;;;3.10;;
71973;SDS011;59840;52.122;5.404;2023-07-08T05:41:34;3.03;;;2.75;;
71973;SDS011;59840;52.122;5.404;2023-07-08T05:44:01;7.40;;;3.60;;
71973;SDS011;59840;52.122;5.404;2023-07-08T05:46:27;4.85;;;2.80;;
71973;SDS011;59840;52.122;5.404;2023-07-08T05:48:54;4.07;;;2.70;;
71973;SDS011;59840;52.122;5.404;2023-07-08T05:51:20;5.45;;;2.90;;
71973;SDS011;59840;52.122;5.404;2023-07-08T05:53:47;3.83;;;2.60;;
71973;SDS011;59840;52.122;5.404;2023-07-08T05:56:14;5.72;;;3.10;;
71973;SDS011;59840;52.122;5.404;2023-07-08T05:58:40;7.40;;;3.08;;
71973;SDS011;59840;52.122;5.404;2023-07-08T06:01:07;4.90;;;2.87;;
71973;SDS011;59840;52.122;5.404;2023-07-08T06:03:36;3.90;;;2.67;;
71973;SDS011;59840;52.122;5.404;2023-07-08T06:06:03;2.92;;;2.63;;
71973;SDS011;59840;52.122;5.404;2023-07-08T06:08:34;3.00;;;2.70;;
71973;SDS011;59840;52.122;5.404;2023-07-08T06:11:00;2.85;;;2.50;;
71973;SDS011;59840;52.122;5.404;2023-07-08T06:13:27;2.80;;;2.37;;
71973;SDS011;59840;52.122;5.404;2023-07-08T06:15:54;3.10;;;2.53;;
71973;SDS011;59840;52.122;5.404;2023-07-08T06:18:21;7.13;;;2.63;;
71973;SDS011;59840;52.122;5.404;2023-07-08T06:20:54;3.95;;;2.50;;
71973;SDS011;59840;52.122;5.404;2023-07-08T06:23:22;3.88;;;3.30;;
71973;SDS011;59840;52.122;5.404;2023-07-08T06:25:48;2.90;;;2.43;;
71973;SDS011;59840;52.122;5.404;2023-07-08T06:28:15;3.55;;;2.95;;
71973;SDS011;59840;52.122;5.404;2023-07-08T06:30:42;6.47;;;2.72;;
71973;SDS011;59840;52.122;5.404;2023-07-08T06:33:09;5.28;;;2.40;;
71973;SDS011;59840;52.122;5.404;2023-07-08T06:35:38;3.15;;;2.65;;
71973;SDS011;59840;52.122;5.404;2023-07-08T06:38:05;4.03;;;2.40;;
71973;SDS011;59840;52.122;5.404;2023-07-08T06:40:33;3.22;;;2.90;;
71973;SDS011;59840;52.122;5.404;2023-07-08T06:43:00;3.42;;;2.88;;
71973;SDS011;59840;52.122;5.404;2023-07-08T06:45:28;3.05;;;2.75;;
71973;SDS011;59840;52.122;5.404;2023-07-08T06:47:55;2.80;;;2.50;;
71973;SDS011;59840;52.122;5.404;2023-07-08T06:50:22;2.57;;;2.30;;
71973;SDS011;59840;52.122;5.404;2023-07-08T06:52:48;3.88;;;2.53;;
71973;SDS011;59840;52.122;5.404;2023-07-08T06:55:15;2.63;;;2.42;;
71973;SDS011;59840;52.122;5.404;2023-07-08T06:57:41;4.25;;;2.67;;
71973;SDS011;59840;52.122;5.404;2023-07-08T07:00:09;3.10;;;2.80;;
71973;SDS011;59840;52.122;5.404;2023-07-08T07:02:37;3.53;;;2.63;;
71973;SDS011;59840;52.122;5.404;2023-07-08T07:05:05;4.07;;;2.83;;
71973;SDS011;59840;52.122;5.404;2023-07-08T07:07:32;3.97;;;2.50;;
71973;SDS011;59840;52.122;5.404;2023-07-08T07:10:00;3.90;;;2.35;;
71973;SDS011;59840;52.122;5.404;2023-07-08T07:12:27;3.35;;;3.00;;
71973;SDS011;59840;52.122;5.404;2023-07-08T07:14:53;10.00;;;3.00;;
71973;SDS011;59840;52.122;5.404;2023-07-08T07:17:21;3.58;;;2.45;;
71973;SDS011;59840;52.122;5.404;2023-07-08T07:19:48;5.20;;;2.72;;
71973;SDS011;59840;52.122;5.404;2023-07-08T07:22:15;2.90;;;2.60;;
71973;SDS011;59840;52.122;5.404;2023-07-08T07:24:42;4.55;;;2.78;;
71973;SDS011;59840;52.122;5.404;2023-07-08T07:27:09;3.67;;;2.57;;
71973;SDS011;59840;52.122;5.404;2023-07-08T07:29:44;3.38;;;2.90;;
71973;SDS011;59840;52.122;5.404;2023-07-08T07:32:12;3.42;;;2.30;;
71973;SDS011;59840;52.122;5.404;2023-07-08T07:34:39;5.40;;;3.08;;
71973;SDS011;59840;52.122;5.404;2023-07-08T07:37:08;4.72;;;2.78;;
71973;SDS011;59840;52.122;5.404;2023-07-08T07:39:37;4.27;;;2.83;;
71973;SDS011;59840;52.122;5.404;2023-07-08T07:42:04;4.20;;;2.92;;
71973;SDS011;59840;52.122;5.404;2023-07-08T07:44:31;3.33;;;2.95;;
71973;SDS011;59840;52.122;5.404;2023-07-08T07:46:58;3.72;;;2.70;;
71973;SDS011;59840;52.122;5.404;2023-07-08T07:49:24;4.07;;;3.00;;
71973;SDS011;59840;52.122;5.404;2023-07-08T07:51:51;3.67;;;2.60;;
71973;SDS011;59840;52.122;5.404;2023-07-08T07:54:18;4.40;;;2.72;;
71973;SDS011;59840;52.122;5.404;2023-07-08T07:56:44;5.88;;;3.20;;
71973;SDS011;59840;52.122;5.404;2023-07-08T07:59:11;3.55;;;2.88;;
71973;SDS011;59840;52.122;5.404;2023-07-08T08:01:38;6.95;;;2.90;;
71973;SDS011;59840;52.122;5.404;2023-07-08T08:04:04;4.93;;;2.60;;
71973;SDS011;59840;52.122;5.404;2023-07-08T08:06:31;3.50;;;3.00;;
71973;SDS011;59840;52.122;5.404;2023-07-08T08:08:57;5.70;;;2.72;;
71973;SDS011;59840;52.122;5.404;2023-07-08T08:11:24;4.15;;;2.83;;
71973;SDS011;59840;52.122;5.404;2023-07-08T08:13:52;3.47;;;3.00;;
71973;SDS011;59840;52.122;5.404;2023-07-08T08:16:19;3.57;;;3.23;;
71973;SDS011;59840;52.122;5.404;2023-07-08T08:18:47;4.03;;;2.70;;
71973;SDS011;59840;52.122;5.404;2023-07-08T08:21:14;4.03;;;2.80;;
71973;SDS011;59840;52.122;5.404;2023-07-08T08:23:41;3.40;;;3.10;;
71973;SDS011;59840;52.122;5.404;2023-07-08T08:26:08;4.90;;;3.20;;
71973;SDS011;59840;52.122;5.404;2023-07-08T08:28:34;5.60;;;3.43;;
71973;SDS011;59840;52.122;5.404;2023-07-08T08:31:01;5.78;;;3.17;;
71973;SDS011;59840;52.122;5.404;2023-07-08T08:33:28;3.83;;;3.30;;
71973;SDS011;59840;52.122;5.404;2023-07-08T08:35:54;6.47;;;3.15;;
71973;SDS011;59840;52.122;5.404;2023-07-08T08:38:21;3.95;;;3.22;;
71973;SDS011;59840;52.122;5.404;2023-07-08T08:40:47;9.93;;;3.70;;
71973;SDS011;59840;52.122;5.404;2023-07-08T08:43:16;4.20;;;3.00;;
71973;SDS011;59840;52.122;5.404;2023-07-08T08:45:49;6.13;;;3.28;;
71973;SDS011;59840;52.122;5.404;2023-07-08T08:48:23;5.25;;;3.50;;
71973;SDS011;59840;52.122;5.404;2023-07-08T08:50:55;3.70;;;3.40;;
71973;SDS011;59840;52.122;5.404;2023-07-08T08:53:26;3.37;;;3.07;;
71973;SDS011;59840;52.122;5.404;2023-07-08T08:55:59;5.43;;;3.67;;
71973;SDS011;59840;52.122;5.404;2023-07-08T09:01:14;4.05;;;3.65;;
71973;SDS011;59840;52.122;5.404;2023-07-08T09:03:50;3.90;;;3.35;;
71973;SDS011;59840;52.122;5.404;2023-07-08T09:08:49;3.55;;;3.00;;
71973;SDS011;59840;52.122;5.404;2023-07-08T09:17:00;5.25;;;3.60;;
71973;SDS011;59840;52.122;5.404;2023-07-08T09:19:34;3.37;;;2.97;;
71973;SDS011;59840;52.122;5.404;2023-07-08T09:22:11;3.90;;;3.40;;
71973;SDS011;59840;52.122;5.404;2023-07-08T09:24:44;5.15;;;3.70;;
71973;SDS011;59840;52.122;5.404;2023-07-08T09:27:15;5.43;;;3.75;;
71973;SDS011;59840;52.122;5.404;2023-07-08T09:29:42;4.10;;;3.60;;
71973;SDS011;59840;52.122;5.404;2023-07-08T09:32:16;5.07;;;3.80;;
71973;SDS011;59840;52.122;5.404;2023-07-08T09:34:52;4.53;;;3.55;;
71973;SDS011;59840;52.122;5.404;2023-07-08T09:37:53;4.43;;;3.67;;
71973;SDS011;59840;52.122;5.404;2023-07-08T09:42:43;5.30;;;3.70;;
71973;SDS011;59840;52.122;5.404;2023-07-08T09:45:13;4.23;;;3.67;;
71973;SDS011;59840;52.122;5.404;2023-07-08T09:47:43;5.32;;;4.28;;
71973;SDS011;59840;52.122;5.404;2023-07-08T09:50:17;5.72;;;4.00;;
71973;SDS011;59840;52.122;5.404;2023-07-08T09:52:51;6.30;;;3.60;;
71973;SDS011;59840;52.122;5.404;2023-07-08T09:55:24;4.32;;;3.92;;
71973;SDS011;59840;52.122;5.404;2023-07-08T09:57:51;4.40;;;3.63;;
71973;SDS011;59840;52.122;5.404;2023-07-08T10:00:26;4.20;;;3.45;;
71973;SDS011;59840;52.122;5.404;2023-07-08T10:02:57;4.22;;;3.40;;
71973;SDS011;59840;52.122;5.404;2023-07-08T10:05:32;5.05;;;4.25;;
71973;SDS011;59840;52.122;5.404;2023-07-08T10:08:13;5.40;;;4.82;;
71973;SDS011;59840;52.122;5.404;2023-07-08T10:10:43;5.87;;;3.87;;
71973;SDS011;59840;52.122;5.404;2023-07-08T10:13:17;5.50;;;4.15;;
71973;SDS011;59840;52.122;5.404;2023-07-08T10:15:53;5.78;;;4.43;;
71973;SDS011;59840;52.122;5.404;2023-07-08T10:18:28;4.93;;;4.43;;
71973;SDS011;59840;52.122;5.404;2023-07-08T10:21:04;10.13;;;4.78;;
71973;SDS011;59840;52.122;5.404;2023-07-08T10:26:38;5.00;;;4.00;;
71973;SDS011;59840;52.122;5.404;2023-07-08T10:29:22;7.53;;;4.35;;
71973;SDS011;59840;52.122;5.404;2023-07-08T10:32:07;5.43;;;4.20;;
71973;SDS011;59840;52.122;5.404;2023-07-08T10:35:00;5.18;;;4.28;;
71973;SDS011;59840;52.122;5.404;2023-07-08T10:37:42;5.23;;;4.73;;
71973;SDS011;59840;52.122;5.404;2023-07-08T10:45:40;5.22;;;3.97;;
71973;SDS011;59840;52.122;5.404;2023-07-08T10:48:31;7.22;;;4.82;;
71973;SDS011;59840;52.122;5.404;2023-07-08T11:02:38;5.40;;;4.65;;
71973;SDS011;59840;52.122;5.404;2023-07-08T11:10:49;7.55;;;5.22;;
71973;SDS011;59840;52.122;5.404;2023-07-08T11:13:40;5.00;;;4.15;;
71973;SDS011;59840;52.122;5.404;2023-07-08T11:16:17;5.72;;;4.03;;
71973;SDS011;59840;52.122;5.404;2023-07-08T11:18:54;6.33;;;4.43;;
71973;SDS011;59840;52.122;5.404;2023-07-08T11:21:45;6.32;;;4.45;;
71973;SDS011;59840;52.122;5.404;2023-07-08T11:24:17;7.70;;;4.78;;
71973;SDS011;59840;52.122;5.404;2023-07-08T11:26:59;5.05;;;4.53;;
71973;SDS011;59840;52.122;5.404;2023-07-08T11:32:18;5.47;;;4.33;;
71973;SDS011;59840;52.122;5.404;2023-07-08T11:34:48;5.07;;;4.55;;
71973;SDS011;59840;52.122;5.404;2023-07-08T11:37:17;5.90;;;4.50;;
71973;SDS011;59840;52.122;5.404;2023-07-08T11:39:55;5.45;;;4.80;;
71973;SDS011;59840;52.122;5.404;2023-07-08T11:45:00;6.83;;;4.13;;
71973;SDS011;59840;52.122;5.404;2023-07-08T11:47:38;7.75;;;5.15;;
71973;SDS011;59840;52.122;5.404;2023-07-08T11:50:28;4.70;;;4.30;;
71973;SDS011;59840;52.122;5.404;2023-07-08T12:01:00;5.60;;;4.57;;
71973;SDS011;59840;52.122;5.404;2023-07-08T12:03:35;4.63;;;4.00;;
71973;SDS011;59840;52.122;5.404;2023-07-08T12:08:54;4.68;;;4.28;;
71973;SDS011;59840;52.122;5.404;2023-07-08T12:11:33;7.17;;;3.90;;
71973;SDS011;59840;52.122;5.404;2023-07-08T12:14:02;5.53;;;4.65;;
71973;SDS011;59840;52.122;5.404;2023-07-08T12:16:31;6.25;;;4.50;;
71973;SDS011;59840;52.122;5.404;2023-07-08T12:18:59;6.22;;;4.32;;
71973;SDS011;59840;52.122;5.404;2023-07-08T12:21:27;5.18;;;4.53;;
71973;SDS011;59840;52.122;5.404;2023-07-08T12:23:54;5.07;;;4.53;;
71973;SDS011;59840;52.122;5.404;2023-07-08T12:26:21;5.22;;;4.70;;
71973;SDS011;59840;52.122;5.404;2023-07-08T12:28:49;5.65;;;4.63;;
71973;SDS011;59840;52.122;5.404;2023-07-08T12:31:17;5.07;;;4.57;;
71973;SDS011;59840;52.122;5.404;2023-07-08T12:33:46;7.97;;;4.93;;
71973;SDS011;59840;52.122;5.404;2023-07-08T12:36:22;5.20;;;4.70;;
71973;SDS011;59840;52.122;5.404;2023-07-08T12:38:52;6.13;;;4.70;;
71973;SDS011;59840;52.122;5.404;2023-07-08T12:41:22;5.38;;;4.65;;
71973;SDS011;59840;52.122;5.404;2023-07-08T12:43:50;6.15;;;4.35;;
71973;SDS011;59840;52.122;5.404;2023-07-08T12:46:19;9.77;;;4.53;;
71973;SDS011;59840;52.122;5.404;2023-07-08T12:48:47;5.43;;;4.57;;
71973;SDS011;59840;52.122;5.404;2023-07-08T12:51:17;5.30;;;4.38;;
71973;SDS011;59840;52.122;5.404;2023-07-08T12:53:50;4.90;;;4.40;;
71973;SDS011;59840;52.122;5.404;2023-07-08T12:56:17;4.20;;;3.80;;
71973;SDS011;59840;52.122;5.404;2023-07-08T12:58:49;5.35;;;4.85;;
71973;SDS011;59840;52.122;5.404;2023-07-08T13:01:21;5.27;;;4.47;;
71973;SDS011;59840;52.122;5.404;2023-07-08T13:03:55;6.13;;;4.40;;
71973;SDS011;59840;52.122;5.404;2023-07-08T13:06:29;7.93;;;4.82;;
71973;SDS011;59840;52.122;5.404;2023-07-08T13:12:10;5.18;;;3.85;;
71973;SDS011;59840;52.122;5.404;2023-07-08T13:14:43;5.70;;;3.97;;
71973;SDS011;59840;52.122;5.404;2023-07-08T13:17:12;4.70;;;4.20;;
71973;SDS011;59840;52.122;5.404;2023-07-08T13:19:40;6.15;;;4.25;;
71973;SDS011;59840;52.122;5.404;2023-07-08T13:22:16;4.03;;;3.63;;
71973;SDS011;59840;52.122;5.404;2023-07-08T13:24:44;4.80;;;4.10;;
71973;SDS011;59840;52.122;5.404;2023-07-08T13:27:20;4.83;;;3.90;;
71973;SDS011;59840;52.122;5.404;2023-07-08T13:29:51;5.45;;;4.22;;
71973;SDS011;59840;52.122;5.404;2023-07-08T13:32:40;4.80;;;3.85;;
71973;SDS011;59840;52.122;5.404;2023-07-08T13:35:20;5.63;;;3.90;;
71973;SDS011;59840;52.122;5.404;2023-07-08T13:37:48;5.65;;;4.45;;
71973;SDS011;59840;52.122;5.404;2023-07-08T13:40:16;5.37;;;4.20;;
71973;SDS011;59840;52.122;5.404;2023-07-08T13:42:47;7.20;;;4.18;;
71973;SDS011;59840;52.122;5.404;2023-07-08T13:45:17;8.48;;;4.18;;
71973;SDS011;59840;52.122;5.404;2023-07-08T13:47:58;4.35;;;3.95;;
71973;SDS011;59840;52.122;5.404;2023-07-08T13:51:30;4.72;;;4.07;;
71973;SDS011;59840;52.122;5.404;2023-07-08T13:58:48;5.97;;;4.25;;
71973;SDS011;59840;52.122;5.404;2023-07-08T14:01:18;5.25;;;3.80;;
71973;SDS011;59840;52.122;5.404;2023-07-08T14:03:49;4.25;;;3.83;;
71973;SDS011;59840;52.122;5.404;2023-07-08T14:06:18;4.07;;;3.50;;
71973;SDS011;59840;52.122;5.404;2023-07-08T14:08:48;4.10;;;3.53;;
71973;SDS011;59840;52.122;5.404;2023-07-08T14:11:15;5.50;;;4.15;;
71973;SDS011;59840;52.122;5.404;2023-07-08T14:13:42;4.22;;;3.83;;
71973;SDS011;59840;52.122;5.404;2023-07-08T14:16:10;3.85;;;3.55;;
71973;SDS011;59840;52.122;5.404;2023-07-08T14:18:46;4.77;;;3.97;;
71973;SDS011;59840;52.122;5.404;2023-07-08T14:21:15;5.85;;;3.95;;
71973;SDS011;59840;52.122;5.404;2023-07-08T14:23:43;6.07;;;4.10;;
71973;SDS011;59840;52.122;5.404;2023-07-08T14:26:10;4.50;;;3.53;;
71973;SDS011;59840;52.122;5.404;2023-07-08T14:28:37;4.00;;;3.58;;
71973;SDS011;59840;52.122;5.404;2023-07-08T14:31:08;5.13;;;4.00;;
71973;SDS011;59840;52.122;5.404;2023-07-08T14:33:37;5.03;;;4.15;;
71973;SDS011;59840;52.122;5.404;2023-07-08T14:36:08;5.05;;;4.57;;
71973;SDS011;59840;52.122;5.404;2023-07-08T14:38:36;6.50;;;4.10;;
71973;SDS011;59840;52.122;5.404;2023-07-08T14:41:03;5.80;;;4.00;;
71973;SDS011;59840;52.122;5.404;2023-07-08T14:43:31;7.60;;;4.40;;
71973;SDS011;59840;52.122;5.404;2023-07-08T14:46:00;7.10;;;3.95;;
71973;SDS011;59840;52.122;5.404;2023-07-08T14:48:29;5.40;;;3.90;;
71973;SDS011;59840;52.122;5.404;2023-07-08T14:50:57;5.82;;;4.47;;
71973;SDS011;59840;52.122;5.404;2023-07-08T14:53:25;4.47;;;4.07;;
71973;SDS011;59840;52.122;5.404;2023-07-08T14:55:52;4.60;;;3.77;;
71973;SDS011;59840;52.122;5.404;2023-07-08T14:58:22;4.75;;;4.22;;
71973;SDS011;59840;52.122;5.404;2023-07-08T15:00:58;6.40;;;4.43;;
71973;SDS011;59840;52.122;5.404;2023-07-08T15:03:26;6.68;;;4.57;;
71973;SDS011;59840;52.122;5.404;2023-07-08T15:05:53;4.75;;;4.10;;
71973;SDS011;59840;52.122;5.404;2023-07-08T15:08:20;6.97;;;4.40;;
71973;SDS011;59840;52.122;5.404;2023-07-08T15:10:48;6.65;;;4.22;;
71973;SDS011;59840;52.122;5.404;2023-07-08T15:13:20;8.32;;;4.60;;
71973;SDS011;59840;52.122;5.404;2023-07-08T15:15:52;8.80;;;4.05;;
71973;SDS011;59840;52.122;5.404;2023-07-08T15:18:19;5.30;;;4.43;;
71973;SDS011;59840;52.122;5.404;2023-07-08T15:20:46;6.13;;;4.10;;
71973;SDS011;59840;52.122;5.404;2023-07-08T15:23:13;4.43;;;4.03;;
71973;SDS011;59840;52.122;5.404;2023-07-08T15:25:41;5.55;;;4.28;;
71973;SDS011;59840;52.122;5.404;2023-07-08T15:28:16;4.63;;;4.10;;
71973;SDS011;59840;52.122;5.404;2023-07-08T15:31:00;4.78;;;4.32;;
71973;SDS011;59840;52.122;5.404;2023-07-08T15:33:29;6.53;;;4.10;;
71973;SDS011;59840;52.122;5.404;2023-07-08T15:35:56;6.68;;;4.20;;
71973;SDS011;59840;52.122;5.404;2023-07-08T15:38:22;5.15;;;4.30;;
71973;SDS011;59840;52.122;5.404;2023-07-08T15:40:49;4.57;;;4.15;;
71973;SDS011;59840;52.122;5.404;2023-07-08T15:43:17;6.20;;;4.43;;
71973;SDS011;59840;52.122;5.404;2023-07-08T15:45:45;5.13;;;4.63;;
71973;SDS011;59840;52.122;5.404;2023-07-08T15:48:15;7.18;;;4.13;;
71973;SDS011;59840;52.122;5.404;2023-07-08T15:50:43;6.07;;;5.20;;
71973;SDS011;59840;52.122;5.404;2023-07-08T15:53:10;5.95;;;4.63;;
71973;SDS011;59840;52.122;5.404;2023-07-08T15:55:38;7.55;;;4.53;;
71973;SDS011;59840;52.122;5.404;2023-07-08T15:58:12;5.00;;;4.50;;
71973;SDS011;59840;52.122;5.404;2023-07-08T16:00:46;4.95;;;4.43;;
71973;SDS011;59840;52.122;5.404;2023-07-08T16:03:18;4.90;;;4.47;;
71973;SDS011;59840;52.122;5.404;2023-07-08T16:05:53;5.60;;;5.10;;
71973;SDS011;59840;52.122;5.404;2023-07-08T16:08:21;5.63;;;5.05;;
71973;SDS011;59840;52.122;5.404;2023-07-08T16:10:52;4.80;;;4.40;;
71973;SDS011;59840;52.122;5.404;2023-07-08T16:13:23;6.68;;;4.47;;
71973;SDS011;59840;52.122;5.404;2023-07-08T16:15:52;7.15;;;4.93;;
71973;SDS011;59840;52.122;5.404;2023-07-08T16:18:20;4.57;;;4.10;;